sensor_id;sensor_type;location;lat;lon;timestamp;pressure;altitude;pressure_sealevel;temperature;humidity
60061;BME280;45933;51.336;12.612;2023-01-27T00:00:50;100398.78;;;0.95;65.48
60061;BME280;45933;51.336;12.612;2023-01-27T00:03:16;100392.00;;;0.95;65.27
60061;BME280;45933;51.336;12.612;2023-01-27T00:05:43;100386.88;;;0.95;65.77
60061;BME280;45933;51.336;12.612;2023-01-27T00:08:08;100388.59;;;0.96;65.83
60061;BME280;45933;51.336;12.612;2023-01-27T00:10:34;100377.47;;;0.96;65.83
60061;BME280;45933;51.336;12.612;2023-01-27T00:12:59;100382.66;;;0.97;65.78
60061;BME280;45933;51.336;12.612;2023-01-27T00:15:46;100375.88;;;0.99;65.42
60061;BME280;45933;51.336;12.612;2023-01-27T00:18:12;100380.91;;;0.96;65.50
60061;BME280;45933;51.336;12.612;2023-01-27T00:20:37;100385.22;;;0.97;65.49
60061;BME280;45933;51.336;12.612;2023-01-27T00:23:23;100378.38;;;0.98;65.75
60061;BME280;45933;51.336;12.612;2023-01-27T00:26:10;100380.94;;;0.98;65.72
60061;BME280;45933;51.336;12.612;2023-01-27T00:28:38;100377.38;;;0.94;65.62
60061;BME280;45933;51.336;12.612;2023-01-27T00:31:05;100385.97;;;0.95;65.91
60061;BME280;45933;51.336;12.612;2023-01-27T00:33:36;100383.47;;;0.96;65.87
60061;BME280;45933;51.336;12.612;2023-01-27T00:36:04;100375.69;;;0.95;65.58
60061;BME280;45933;51.336;12.612;2023-01-27T00:38:32;100373.94;;;0.94;65.73
60061;BME280;45933;51.336;12.612;2023-01-27T00:41:04;100379.91;;;0.93;66.00
60061;BME280;45933;51.336;12.612;2023-01-27T00:43:54;100374.13;;;0.98;66.20
60061;BME280;45933;51.336;12.612;2023-01-27T00:46:22;100379.16;;;0.95;66.15
60061;BME280;45933;51.336;12.612;2023-01-27T00:48:48;100384.22;;;0.94;65.51
60061;BME280;45933;51.336;12.612;2023-01-27T00:51:13;100386.78;;;0.94;65.79
60061;BME280;45933;51.336;12.612;2023-01-27T00:53:39;100390.22;;;0.94;65.92
60061;BME280;45933;51.336;12.612;2023-01-27T00:56:07;100385.16;;;0.96;65.81
60061;BME280;45933;51.336;12.612;2023-01-27T00:58:33;100384.22;;;0.94;65.76
60061;BME280;45933;51.336;12.612;2023-01-27T01:01:02;100386.88;;;0.95;65.96
60061;BME280;45933;51.336;12.612;2023-01-27T01:03:29;100385.91;;;0.93;66.11
60061;BME280;45933;51.336;12.612;2023-01-27T01:05:59;100379.09;;;0.94;66.07
60061;BME280;45933;51.336;12.612;2023-01-27T01:08:28;100387.59;;;0.93;66.18
60061;BME280;45933;51.336;12.612;2023-01-27T01:10:54;100385.97;;;0.95;66.20
60061;BME280;45933;51.336;12.612;2023-01-27T01:13:19;100384.28;;;0.95;66.35
60061;BME280;45933;51.336;12.612;2023-01-27T01:15:46;100385.16;;;0.96;66.31
60061;BME280;45933;51.336;12.612;2023-01-27T01:18:11;100380.91;;;0.96;66.18
60061;BME280;45933;51.336;12.612;2023-01-27T01:20:39;100386.03;;;0.96;66.36
60061;BME280;45933;51.336;12.612;2023-01-27T01:23:05;100386.91;;;0.97;65.91
60061;BME280;45933;51.336;12.612;2023-01-27T01:25:31;100385.22;;;0.97;65.85
60061;BME280;45933;51.336;12.612;2023-01-27T01:27:56;100386.97;;;0.98;66.50
60061;BME280;45933;51.336;12.612;2023-01-27T01:30:21;100386.09;;;0.98;66.19
60061;BME280;45933;51.336;12.612;2023-01-27T01:32:50;100383.53;;;0.98;66.33
60061;BME280;45933;51.336;12.612;2023-01-27T01:35:15;100385.34;;;1.00;66.21
60061;BME280;45933;51.336;12.612;2023-01-27T01:37:41;100379.38;;;1.01;66.27
60061;BME280;45933;51.336;12.612;2023-01-27T01:40:06;100383.66;;;1.01;65.98
60061;BME280;45933;51.336;12.612;2023-01-27T01:51:24;100379.66;;;1.09;66.10
60061;BME280;45933;51.336;12.612;2023-01-27T01:54:08;100376.16;;;1.07;65.91
60061;BME280;45933;51.336;12.612;2023-01-27T01:56:46;100377.75;;;1.03;66.07
60061;BME280;45933;51.336;12.612;2023-01-27T01:59:22;100384.56;;;1.03;66.27
60061;BME280;45933;51.336;12.612;2023-01-27T02:01:50;100387.00;;;1.00;66.30
60061;BME280;45933;51.336;12.612;2023-01-27T02:04:19;100390.53;;;1.02;66.42
60061;BME280;45933;51.336;12.612;2023-01-27T02:07:06;100387.25;;;1.06;66.21
60061;BME280;45933;51.336;12.612;2023-01-27T02:09:33;100386.13;;;0.99;66.18
60061;BME280;45933;51.336;12.612;2023-01-27T02:12:01;100372.44;;;0.99;66.08
60061;BME280;45933;51.336;12.612;2023-01-27T02:14:26;100375.88;;;0.99;66.30
60061;BME280;45933;51.336;12.612;2023-01-27T02:16:51;100385.34;;;1.00;65.99
60061;BME280;45933;51.336;12.612;2023-01-27T02:19:24;100373.44;;;1.02;66.06
60061;BME280;45933;51.336;12.612;2023-01-27T02:21:53;100381.09;;;1.01;66.28
60061;BME280;45933;51.336;12.612;2023-01-27T02:24:22;100387.09;;;1.01;66.38
60061;BME280;45933;51.336;12.612;2023-01-27T02:26:50;100376.75;;;1.00;66.13
60061;BME280;45933;51.336;12.612;2023-01-27T02:29:16;100381.88;;;1.00;66.21
60061;BME280;45933;51.336;12.612;2023-01-27T02:31:41;100372.44;;;0.99;66.25
60061;BME280;45933;51.336;12.612;2023-01-27T02:34:10;100380.25;;;1.02;66.06
60061;BME280;45933;51.336;12.612;2023-01-27T02:36:47;100376.81;;;1.01;66.02
60061;BME280;45933;51.336;12.612;2023-01-27T02:39:14;100378.38;;;0.98;65.78
60061;BME280;45933;51.336;12.612;2023-01-27T02:41:46;100383.56;;;0.99;65.82
60061;BME280;45933;51.336;12.612;2023-01-27T02:44:13;100390.34;;;0.97;66.20
60061;BME280;45933;51.336;12.612;2023-01-27T02:46:39;100392.91;;;0.97;65.90
60061;BME280;45933;51.336;12.612;2023-01-27T02:49:04;100399.75;;;0.97;65.81
60061;BME280;45933;51.336;12.612;2023-01-27T02:51:30;100397.91;;;0.94;65.79
60061;BME280;45933;51.336;12.612;2023-01-27T02:53:55;100403.94;;;0.95;65.87
60061;BME280;45933;51.336;12.612;2023-01-27T02:56:20;100409.97;;;0.95;65.86
60061;BME280;45933;51.336;12.612;2023-01-27T02:58:46;100412.53;;;0.95;65.54
60061;BME280;45933;51.336;12.612;2023-01-27T03:01:11;100416.75;;;0.95;65.56
60061;BME280;45933;51.336;12.612;2023-01-27T03:03:37;100421.03;;;0.94;65.62
60061;BME280;45933;51.336;12.612;2023-01-27T03:06:09;100421.91;;;0.95;65.48
60061;BME280;45933;51.336;12.612;2023-01-27T03:08:34;100422.72;;;0.94;65.82
60061;BME280;45933;51.336;12.612;2023-01-27T03:10:59;100426.16;;;0.94;65.61
60061;BME280;45933;51.336;12.612;2023-01-27T03:13:25;100428.66;;;0.93;65.50
60061;BME280;45933;51.336;12.612;2023-01-27T03:15:52;100432.13;;;0.93;65.68
60061;BME280;45933;51.336;12.612;2023-01-27T03:18:36;100435.56;;;0.94;65.62
60061;BME280;45933;51.336;12.612;2023-01-27T03:21:04;100434.72;;;0.95;65.37
60061;BME280;45933;51.336;12.612;2023-01-27T03:23:30;100443.25;;;0.94;65.51
60061;BME280;45933;51.336;12.612;2023-01-27T03:25:59;100436.38;;;0.93;65.32
60061;BME280;45933;51.336;12.612;2023-01-27T03:28:25;100438.03;;;0.91;65.09
60061;BME280;45933;51.336;12.612;2023-01-27T03:30:50;100436.38;;;0.93;65.32
60061;BME280;45933;51.336;12.612;2023-01-27T03:33:15;100444.06;;;0.93;65.14
60061;BME280;45933;51.336;12.612;2023-01-27T03:35:41;100443.19;;;0.92;65.22
60061;BME280;45933;51.336;12.612;2023-01-27T03:38:14;100443.16;;;0.91;65.25
60061;BME280;45933;51.336;12.612;2023-01-27T03:40:58;100443.06;;;0.89;65.11
60061;BME280;45933;51.336;12.612;2023-01-27T03:43:42;100446.53;;;0.90;65.21
60061;BME280;45933;51.336;12.612;2023-01-27T03:46:26;100439.63;;;0.89;65.10
60061;BME280;45933;51.336;12.612;2023-01-27T03:48:53;100448.16;;;0.88;64.95
60061;BME280;45933;51.336;12.612;2023-01-27T03:51:21;100445.59;;;0.88;64.63
60061;BME280;45933;51.336;12.612;2023-01-27T03:53:47;100440.41;;;0.86;65.34
60061;BME280;45933;51.336;12.612;2023-01-27T03:56:14;100443.84;;;0.87;64.68
60061;BME280;45933;51.336;12.612;2023-01-27T03:58:40;100444.66;;;0.86;64.38
60061;BME280;45933;51.336;12.612;2023-01-27T04:01:15;100436.19;;;0.88;64.63
60061;BME280;45933;51.336;12.612;2023-01-27T04:03:40;100447.28;;;0.87;64.49
60061;BME280;45933;51.336;12.612;2023-01-27T04:06:30;100441.41;;;0.90;64.61
60061;BME280;45933;51.336;12.612;2023-01-27T04:11:48;100439.53;;;0.86;65.00
60061;BME280;45933;51.336;12.612;2023-01-27T04:14:39;100438.06;;;0.92;64.76
60061;BME280;45933;51.336;12.612;2023-01-27T04:17:13;100444.72;;;0.87;64.75
60061;BME280;45933;51.336;12.612;2023-01-27T04:19:39;100446.34;;;0.85;64.80
60061;BME280;45933;51.336;12.612;2023-01-27T04:22:05;100443.66;;;0.82;64.88
60061;BME280;45933;51.336;12.612;2023-01-27T04:24:31;100443.66;;;0.82;64.82
60061;BME280;45933;51.336;12.612;2023-01-27T04:26:59;100441.97;;;0.83;64.71
60061;BME280;45933;51.336;12.612;2023-01-27T04:29:27;100444.47;;;0.81;64.95
60061;BME280;45933;51.336;12.612;2023-01-27T04:31:53;100443.53;;;0.79;64.94
60061;BME280;45933;51.336;12.612;2023-01-27T04:34:20;100441.78;;;0.78;65.00
60061;BME280;45933;51.336;12.612;2023-01-27T04:36:46;100451.16;;;0.77;64.67
60061;BME280;45933;51.336;12.612;2023-01-27T04:39:12;100453.69;;;0.76;64.73
60061;BME280;45933;51.336;12.612;2023-01-27T04:41:38;100453.75;;;0.77;64.74
60061;BME280;45933;51.336;12.612;2023-01-27T04:44:05;100457.19;;;0.78;64.92
60061;BME280;45933;51.336;12.612;2023-01-27T04:46:31;100457.19;;;0.78;65.08
60061;BME280;45933;51.336;12.612;2023-01-27T04:48:56;100469.19;;;0.79;64.95
60061;BME280;45933;51.336;12.612;2023-01-27T04:51:22;100465.84;;;0.80;65.01
60061;BME280;45933;51.336;12.612;2023-01-27T04:53:47;100461.56;;;0.81;65.17
60061;BME280;45933;51.336;12.612;2023-01-27T04:56:30;100471.25;;;0.88;65.07
60061;BME280;45933;51.336;12.612;2023-01-27T04:59:01;100475.38;;;0.84;65.22
60061;BME280;45933;51.336;12.612;2023-01-27T05:01:27;100476.16;;;0.82;65.50
60061;BME280;45933;51.336;12.612;2023-01-27T05:03:52;100471.88;;;0.82;65.11
60061;BME280;45933;51.336;12.612;2023-01-27T05:06:18;100465.88;;;0.82;65.41
60061;BME280;45933;51.336;12.612;2023-01-27T05:08:44;100470.13;;;0.81;65.50
60061;BME280;45933;51.336;12.612;2023-01-27T05:11:10;100471.16;;;0.85;65.34
60061;BME280;45933;51.336;12.612;2023-01-27T05:13:35;100470.25;;;0.84;65.66
60061;BME280;45933;51.336;12.612;2023-01-27T05:16:18;100467.81;;;0.87;65.13
60061;BME280;45933;51.336;12.612;2023-01-27T05:18:45;100472.06;;;0.87;65.62
60061;BME280;45933;51.336;12.612;2023-01-27T05:21:13;100472.06;;;0.87;65.78
60061;BME280;45933;51.336;12.612;2023-01-27T05:23:39;100470.38;;;0.87;65.65
60061;BME280;45933;51.336;12.612;2023-01-27T05:26:10;100471.25;;;0.88;65.66
60061;BME280;45933;51.336;12.612;2023-01-27T05:28:37;100472.06;;;0.87;65.97
60061;BME280;45933;51.336;12.612;2023-01-27T05:31:27;100477.38;;;0.91;65.54
60061;BME280;45933;51.336;12.612;2023-01-27T05:33:54;100475.66;;;0.90;65.91
60061;BME280;45933;51.336;12.612;2023-01-27T05:36:22;100477.34;;;0.90;65.83
60061;BME280;45933;51.336;12.612;2023-01-27T05:38:48;100477.34;;;0.90;66.00
60061;BME280;45933;51.336;12.612;2023-01-27T05:41:15;100482.47;;;0.90;65.81
60061;BME280;45933;51.336;12.612;2023-01-27T05:43:41;100485.03;;;0.90;66.02
60061;BME280;45933;51.336;12.612;2023-01-27T05:46:18;100483.50;;;0.95;65.93
60061;BME280;45933;51.336;12.612;2023-01-27T05:48:46;100481.66;;;0.91;65.77
60061;BME280;45933;51.336;12.612;2023-01-27T05:51:14;100476.44;;;0.89;65.67
60061;BME280;45933;51.336;12.612;2023-01-27T05:53:40;100473.94;;;0.91;65.82
60061;BME280;45933;51.336;12.612;2023-01-27T05:56:06;100479.09;;;0.91;66.15
60061;BME280;45933;51.336;12.612;2023-01-27T05:58:34;100473.09;;;0.90;65.97
60061;BME280;45933;51.336;12.612;2023-01-27T06:01:07;100482.72;;;0.96;66.23
60061;BME280;45933;51.336;12.612;2023-01-27T06:03:34;100483.44;;;0.93;65.95
60061;BME280;45933;51.336;12.612;2023-01-27T06:05:59;100483.50;;;0.95;66.04
60061;BME280;45933;51.336;12.612;2023-01-27T06:08:25;100488.72;;;0.96;66.20
60061;BME280;45933;51.336;12.612;2023-01-27T06:10:52;100489.53;;;0.95;66.34
60061;BME280;45933;51.336;12.612;2023-01-27T06:13:19;100487.03;;;0.97;66.21
60061;BME280;45933;51.336;12.612;2023-01-27T06:15:45;100502.47;;;0.98;66.17
60061;BME280;45933;51.336;12.612;2023-01-27T06:18:12;100492.22;;;0.98;66.37
60061;BME280;45933;51.336;12.612;2023-01-27T06:20:37;100494.81;;;1.00;66.64
60061;BME280;45933;51.336;12.612;2023-01-27T06:23:04;100499.16;;;1.01;66.10
60061;BME280;45933;51.336;12.612;2023-01-27T06:25:41;100498.44;;;1.05;66.13
60061;BME280;45933;51.336;12.612;2023-01-27T06:28:07;100498.41;;;1.03;66.40
60061;BME280;45933;51.336;12.612;2023-01-27T06:30:34;100507.84;;;1.04;65.98
60061;BME280;45933;51.336;12.612;2023-01-27T06:32:59;100505.38;;;1.06;66.20
60061;BME280;45933;51.336;12.612;2023-01-27T06:35:25;100501.00;;;1.05;66.28
60061;BME280;45933;51.336;12.612;2023-01-27T06:37:50;100507.06;;;1.06;65.94
60061;BME280;45933;51.336;12.612;2023-01-27T06:40:16;100507.06;;;1.06;66.08
60061;BME280;45933;51.336;12.612;2023-01-27T06:42:42;100502.72;;;1.04;66.05
60061;BME280;45933;51.336;12.612;2023-01-27T06:45:11;100496.69;;;1.04;66.01
60061;BME280;45933;51.336;12.612;2023-01-27T06:47:38;100501.09;;;1.07;66.03
60061;BME280;45933;51.336;12.612;2023-01-27T06:50:05;100498.44;;;1.05;66.27
60061;BME280;45933;51.336;12.612;2023-01-27T06:52:31;100504.50;;;1.06;66.20
60061;BME280;45933;51.336;12.612;2023-01-27T06:54:57;100513.13;;;1.08;66.12
60061;BME280;45933;51.336;12.612;2023-01-27T06:57:22;100503.72;;;1.08;66.00
60061;BME280;45933;51.336;12.612;2023-01-27T06:59:47;100505.41;;;1.08;66.04
60061;BME280;45933;51.336;12.612;2023-01-27T07:02:12;100508.03;;;1.09;66.28
60061;BME280;45933;51.336;12.612;2023-01-27T07:04:38;100507.28;;;1.12;66.11
60061;BME280;45933;51.336;12.612;2023-01-27T07:07:03;100507.28;;;1.12;66.07
60061;BME280;45933;51.336;12.612;2023-01-27T07:09:28;100513.31;;;1.12;66.12
60061;BME280;45933;51.336;12.612;2023-01-27T07:11:54;100515.03;;;1.13;66.15
60061;BME280;45933;51.336;12.612;2023-01-27T07:14:19;100514.22;;;1.14;66.35
60061;BME280;45933;51.336;12.612;2023-01-27T07:16:45;100513.41;;;1.15;66.38
60061;BME280;45933;51.336;12.612;2023-01-27T07:19:10;100520.22;;;1.15;66.27
60061;BME280;45933;51.336;12.612;2023-01-27T07:21:37;100518.63;;;1.17;66.33
60061;BME280;45933;51.336;12.612;2023-01-27T07:24:02;100527.19;;;1.17;66.16
60061;BME280;45933;51.336;12.612;2023-01-27T07:26:28;100536.66;;;1.18;66.26
60061;BME280;45933;51.336;12.612;2023-01-27T07:28:54;100535.81;;;1.19;66.47
60061;BME280;45933;51.336;12.612;2023-01-27T07:31:19;100535.00;;;1.20;66.56
60061;BME280;45933;51.336;12.612;2023-01-27T07:33:45;100539.34;;;1.21;66.24
60061;BME280;45933;51.336;12.612;2023-01-27T07:36:10;100547.91;;;1.22;66.52
60061;BME280;45933;51.336;12.612;2023-01-27T07:38:35;100542.84;;;1.23;66.64
60061;BME280;45933;51.336;12.612;2023-01-27T07:41:05;100542.94;;;1.26;66.27
60061;BME280;45933;51.336;12.612;2023-01-27T07:43:31;100550.50;;;1.22;66.34
60061;BME280;45933;51.336;12.612;2023-01-27T07:45:56;100551.38;;;1.22;66.71
60061;BME280;45933;51.336;12.612;2023-01-27T07:48:22;100561.69;;;1.24;66.71
60061;BME280;45933;51.336;12.612;2023-01-27T07:50:48;100556.59;;;1.25;66.91
60061;BME280;45933;51.336;12.612;2023-01-27T07:53:13;100560.13;;;1.27;66.92
60061;BME280;45933;51.336;12.612;2023-01-27T07:55:38;100562.69;;;1.27;66.86
60061;BME280;45933;51.336;12.612;2023-01-27T07:58:04;100559.31;;;1.28;67.45
60061;BME280;45933;51.336;12.612;2023-01-27T08:00:30;100561.06;;;1.29;67.35
60061;BME280;45933;51.336;12.612;2023-01-27T08:02:57;100561.97;;;1.31;67.36
60061;BME280;45933;51.336;12.612;2023-01-27T08:05:23;100564.63;;;1.33;67.30
60061;BME280;45933;51.336;12.612;2023-01-27T08:07:49;100562.94;;;1.34;67.57
60061;BME280;45933;51.336;12.612;2023-01-27T08:10:15;100575.00;;;1.36;67.13
60061;BME280;45933;51.336;12.612;2023-01-27T08:12:42;100569.94;;;1.38;67.69
60061;BME280;45933;51.336;12.612;2023-01-27T08:15:07;100571.69;;;1.39;67.77
60061;BME280;45933;51.336;12.612;2023-01-27T08:17:33;100567.44;;;1.39;67.82
60061;BME280;45933;51.336;12.612;2023-01-27T08:19:59;100571.78;;;1.42;67.90
60061;BME280;45933;51.336;12.612;2023-01-27T08:22:24;100571.78;;;1.42;68.01
60061;BME280;45933;51.336;12.612;2023-01-27T08:24:50;100569.31;;;1.43;67.90
60061;BME280;45933;51.336;12.612;2023-01-27T08:27:16;100574.50;;;1.45;67.99
60061;BME280;45933;51.336;12.612;2023-01-27T08:29:42;100575.38;;;1.45;68.04
60061;BME280;45933;51.336;12.612;2023-01-27T08:32:07;100576.28;;;1.47;68.28
60061;BME280;45933;51.336;12.612;2023-01-27T08:34:33;100577.19;;;1.48;68.36
60061;BME280;45933;51.336;12.612;2023-01-27T08:36:59;100577.25;;;1.49;68.24
60061;BME280;45933;51.336;12.612;2023-01-27T08:39:24;100579.00;;;1.50;68.24
60061;BME280;45933;51.336;12.612;2023-01-27T08:41:49;100575.59;;;1.51;68.41
60061;BME280;45933;51.336;12.612;2023-01-27T08:44:15;100580.00;;;1.54;68.11
60061;BME280;45933;51.336;12.612;2023-01-27T08:46:40;100576.56;;;1.53;68.42
60061;BME280;45933;51.336;12.612;2023-01-27T08:49:05;100576.59;;;1.55;68.35
60061;BME280;45933;51.336;12.612;2023-01-27T08:51:31;100583.63;;;1.59;68.65
60061;BME280;45933;51.336;12.612;2023-01-27T08:53:56;100580.22;;;1.60;68.41
60061;BME280;45933;51.336;12.612;2023-01-27T08:56:22;100594.00;;;1.62;68.50
60061;BME280;45933;51.336;12.612;2023-01-27T08:58:47;100592.31;;;1.63;68.51
60061;BME280;45933;51.336;12.612;2023-01-27T09:01:14;100594.13;;;1.65;68.75
60061;BME280;45933;51.336;12.612;2023-01-27T09:03:39;100593.31;;;1.66;68.46
60061;BME280;45933;51.336;12.612;2023-01-27T09:06:07;100597.75;;;1.70;68.54
60061;BME280;45933;51.336;12.612;2023-01-27T09:08:33;100590.91;;;1.71;68.74
60061;BME280;45933;51.336;12.612;2023-01-27T09:10:58;100590.97;;;1.72;68.64
60061;BME280;45933;51.336;12.612;2023-01-27T09:13:24;100587.66;;;1.75;68.61
60061;BME280;45933;51.336;12.612;2023-01-27T09:15:52;100599.78;;;1.79;68.84
60061;BME280;45933;51.336;12.612;2023-01-27T09:18:18;100597.16;;;1.77;68.71
60061;BME280;45933;51.336;12.612;2023-01-27T09:20:44;100607.56;;;1.80;68.91
60061;BME280;45933;51.336;12.612;2023-01-27T09:23:10;100600.78;;;1.82;69.08
60061;BME280;45933;51.336;12.612;2023-01-27T09:25:35;100603.53;;;1.87;68.84
60061;BME280;45933;51.336;12.612;2023-01-27T09:28:00;100606.22;;;1.90;68.94
60061;BME280;45933;51.336;12.612;2023-01-27T09:30:27;100607.19;;;1.94;68.83
60061;BME280;45933;51.336;12.612;2023-01-27T09:32:57;100605.63;;;1.97;68.64
60061;BME280;45933;51.336;12.612;2023-01-27T09:35:22;100597.09;;;1.98;68.69
60061;BME280;45933;51.336;12.612;2023-01-27T09:37:55;100597.31;;;2.04;68.75
60061;BME280;45933;51.336;12.612;2023-01-27T09:43:31;100605.38;;;2.14;68.53
60061;BME280;45933;51.336;12.612;2023-01-27T09:52:07;100603.00;;;2.20;68.53
60061;BME280;45933;51.336;12.612;2023-01-27T09:57:50;100606.59;;;2.23;68.36
60061;BME280;45933;51.336;12.612;2023-01-27T10:00:46;100610.25;;;2.30;68.06
60061;BME280;45933;51.336;12.612;2023-01-27T10:11:10;100600.66;;;2.26;68.36
60061;BME280;45933;51.336;12.612;2023-01-27T10:17:05;100604.22;;;2.29;68.39
60061;BME280;45933;51.336;12.612;2023-01-27T10:22:33;100598.25;;;2.30;68.49
60061;BME280;45933;51.336;12.612;2023-01-27T10:27:56;100609.38;;;2.29;68.55
60061;BME280;45933;51.336;12.612;2023-01-27T10:30:31;100608.53;;;2.30;68.67
60061;BME280;45933;51.336;12.612;2023-01-27T10:48:51;100619.00;;;2.35;69.05
60061;BME280;45933;51.336;12.612;2023-01-27T10:51:20;100611.28;;;2.35;69.00
60061;BME280;45933;51.336;12.612;2023-01-27T10:53:51;100619.13;;;2.38;69.01
60061;BME280;45933;51.336;12.612;2023-01-27T10:59:25;100609.25;;;2.50;68.95
60061;BME280;45933;51.336;12.612;2023-01-27T11:02:03;100610.91;;;2.48;69.09
60061;BME280;45933;51.336;12.612;2023-01-27T11:04:36;100600.53;;;2.47;69.05
60061;BME280;45933;51.336;12.612;2023-01-27T11:07:05;100608.34;;;2.48;69.11
60061;BME280;45933;51.336;12.612;2023-01-27T11:09:35;100607.59;;;2.52;69.02
60061;BME280;45933;51.336;12.612;2023-01-27T11:12:09;100606.88;;;2.56;69.02
60061;BME280;45933;51.336;12.612;2023-01-27T11:14:47;100606.13;;;2.59;68.96
60061;BME280;45933;51.336;12.612;2023-01-27T11:23:21;100611.75;;;2.73;68.84
60061;BME280;45933;51.336;12.612;2023-01-27T11:26:20;100617.72;;;2.72;68.85
60061;BME280;45933;51.336;12.612;2023-01-27T11:29:16;100610.78;;;2.69;68.80
60061;BME280;45933;51.336;12.612;2023-01-27T11:31:55;100611.59;;;2.68;68.88
60061;BME280;45933;51.336;12.612;2023-01-27T11:34:42;100610.91;;;2.74;68.73
60061;BME280;45933;51.336;12.612;2023-01-27T11:37:28;100610.13;;;2.75;68.62
60061;BME280;45933;51.336;12.612;2023-01-27T11:39:55;100609.88;;;2.69;68.68
60061;BME280;45933;51.336;12.612;2023-01-27T11:42:20;100607.31;;;2.69;68.81
60061;BME280;45933;51.336;12.612;2023-01-27T11:44:49;100608.25;;;2.71;68.92
60061;BME280;45933;51.336;12.612;2023-01-27T11:47:23;100606.59;;;2.73;68.88
60061;BME280;45933;51.336;12.612;2023-01-27T11:49:51;100603.09;;;2.71;69.26
60061;BME280;45933;51.336;12.612;2023-01-27T11:52:19;100603.19;;;2.74;69.05
60061;BME280;45933;51.336;12.612;2023-01-27T11:57:20;100599.06;;;2.79;69.04
60061;BME280;45933;51.336;12.612;2023-01-27T11:59:47;100593.06;;;2.78;69.21
60061;BME280;45933;51.336;12.612;2023-01-27T12:04:49;100593.25;;;2.84;69.15
60061;BME280;45933;51.336;12.612;2023-01-27T12:07:47;100590.97;;;2.92;68.83
60061;BME280;45933;51.336;12.612;2023-01-27T12:10:23;100594.25;;;2.88;69.01
60061;BME280;45933;51.336;12.612;2023-01-27T12:12:49;100592.53;;;2.88;68.82
60061;BME280;45933;51.336;12.612;2023-01-27T12:15:16;100583.13;;;2.89;68.80
60061;BME280;45933;51.336;12.612;2023-01-27T12:17:45;100577.25;;;2.93;68.72
60061;BME280;45933;51.336;12.612;2023-01-27T12:20:25;100580.84;;;2.98;68.92
60061;BME280;45933;51.336;12.612;2023-01-27T12:22:55;100573.09;;;2.97;69.12
60061;BME280;45933;51.336;12.612;2023-01-27T12:25:29;100574.13;;;3.02;69.17
60061;BME280;45933;51.336;12.612;2023-01-27T12:27:58;100567.22;;;3.01;69.27
60061;BME280;45933;51.336;12.612;2023-01-27T12:30:30;100571.69;;;3.06;69.04
60061;BME280;45933;51.336;12.612;2023-01-27T12:32:57;100576.88;;;3.08;69.16
60061;BME280;45933;51.336;12.612;2023-01-27T12:35:29;100571.00;;;3.12;69.51
60061;BME280;45933;51.336;12.612;2023-01-27T12:38:13;100565.25;;;3.21;68.95
60061;BME280;45933;51.336;12.612;2023-01-27T12:40:43;100564.34;;;3.19;68.78
60061;BME280;45933;51.336;12.612;2023-01-27T12:43:17;100561.91;;;3.23;68.77
60061;BME280;45933;51.336;12.612;2023-01-27T12:45:44;100562.69;;;3.21;68.77
60061;BME280;45933;51.336;12.612;2023-01-27T12:48:29;100567.16;;;3.26;68.66
60061;BME280;45933;51.336;12.612;2023-01-27T12:51:03;100563.78;;;3.27;68.47
60061;BME280;45933;51.336;12.612;2023-01-27T12:53:29;100564.56;;;3.26;68.62
60061;BME280;45933;51.336;12.612;2023-01-27T12:56:19;100571.75;;;3.36;68.60
60061;BME280;45933;51.336;12.612;2023-01-27T12:58:54;100563.84;;;3.30;68.72
60061;BME280;45933;51.336;12.612;2023-01-27T13:01:31;100566.59;;;3.36;68.66
60061;BME280;45933;51.336;12.612;2023-01-27T13:03:59;100569.94;;;3.32;68.63
60061;BME280;45933;51.336;12.612;2023-01-27T13:06:49;100565.91;;;3.42;68.82
60061;BME280;45933;51.336;12.612;2023-01-27T13:12:23;100572.78;;;3.41;68.61
60061;BME280;45933;51.336;12.612;2023-01-27T13:14:50;100563.22;;;3.37;68.69
60061;BME280;45933;51.336;12.612;2023-01-27T13:20:06;100567.69;;;3.43;68.97
60061;BME280;45933;51.336;12.612;2023-01-27T13:22:47;100566.00;;;3.44;68.74
60061;BME280;45933;51.336;12.612;2023-01-27T13:25:20;100565.16;;;3.45;68.67
60061;BME280;45933;51.336;12.612;2023-01-27T13:27:47;100559.97;;;3.43;68.78
60061;BME280;45933;51.336;12.612;2023-01-27T13:30:20;100562.53;;;3.43;68.29
60061;BME280;45933;51.336;12.612;2023-01-27T13:32:48;100561.56;;;3.39;68.25
60061;BME280;45933;51.336;12.612;2023-01-27T13:35:21;100561.56;;;3.39;68.67
60061;BME280;45933;51.336;12.612;2023-01-27T13:38:07;100569.34;;;3.41;68.48
60061;BME280;45933;51.336;12.612;2023-01-27T13:40:41;100573.53;;;3.37;68.54
60061;BME280;45933;51.336;12.612;2023-01-27T13:43:29;100577.09;;;3.42;68.62
60061;BME280;45933;51.336;12.612;2023-01-27T13:46:10;100571.88;;;3.39;68.57
60061;BME280;45933;51.336;12.612;2023-01-27T13:48:48;100576.91;;;3.36;68.74
60061;BME280;45933;51.336;12.612;2023-01-27T13:51:17;100587.16;;;3.33;68.93
60061;BME280;45933;51.336;12.612;2023-01-27T13:53:44;100585.34;;;3.31;68.71
60061;BME280;45933;51.336;12.612;2023-01-27T13:56:29;100592.34;;;3.35;68.86
60061;BME280;45933;51.336;12.612;2023-01-27T14:07:42;100596.59;;;3.33;69.06
60061;BME280;45933;51.336;12.612;2023-01-27T14:10:32;100606.81;;;3.31;69.10
60061;BME280;45933;51.336;12.612;2023-01-27T14:13:13;100593.06;;;3.31;69.04
60061;BME280;45933;51.336;12.612;2023-01-27T14:18:16;100600.66;;;3.26;69.00
60061;BME280;45933;51.336;12.612;2023-01-27T14:24:03;100603.22;;;3.26;69.01
60061;BME280;45933;51.336;12.612;2023-01-27T14:26:57;100600.66;;;3.26;69.08
60061;BME280;45933;51.336;12.612;2023-01-27T14:32:33;100612.75;;;3.29;69.26
60061;BME280;45933;51.336;12.612;2023-01-27T14:35:21;100605.88;;;3.28;69.40
60061;BME280;45933;51.336;12.612;2023-01-27T14:40:43;100604.78;;;3.21;69.33